sensor_id;sensor_type;location;lat;lon;timestamp;pressure;altitude;pressure_sealevel;temperature;humidity
36692;BME280;22678;52.052;4.242;2023-08-30T00:01:28;100834.47;;;17.50;65.12
36692;BME280;22678;52.052;4.242;2023-08-30T00:03:53;100826.59;;;17.47;65.12
36692;BME280;22678;52.052;4.242;2023-08-30T00:06:19;100838.75;;;17.54;65.25
36692;BME280;22678;52.052;4.242;2023-08-30T00:08:45;100842.31;;;17.53;65.27
36692;BME280;22678;52.052;4.242;2023-08-30T00:11:10;100834.41;;;17.51;65.36
36692;BME280;22678;52.052;4.242;2023-08-30T00:13:35;100815.25;;;17.43;65.47
36692;BME280;22678;52.052;4.242;2023-08-30T00:16:01;100830.06;;;17.49;65.56
36692;BME280;22678;52.052;4.242;2023-08-30T00:18:27;100822.31;;;17.43;65.75
36692;BME280;22678;52.052;4.242;2023-08-30T00:20:53;100825.81;;;17.45;65.77
36692;BME280;22678;52.052;4.242;2023-08-30T00:23:18;100791.94;;;17.26;65.79
36692;BME280;22678;52.052;4.242;2023-08-30T00:25:44;100806.78;;;17.32;65.78
36692;BME280;22678;52.052;4.242;2023-08-30T00:28:09;100819.78;;;17.40;66.00
36692;BME280;22678;52.052;4.242;2023-08-30T00:30:34;100822.44;;;17.40;66.04
36692;BME280;22678;52.052;4.242;2023-08-30T00:33:00;100819.78;;;17.40;66.16
36692;BME280;22678;52.052;4.242;2023-08-30T00:35:25;100796.31;;;17.27;66.36
36692;BME280;22678;52.052;4.242;2023-08-30T00:37:50;100809.50;;;17.30;66.29
36692;BME280;22678;52.052;4.242;2023-08-30T00:40:16;100786.72;;;17.23;66.56
36692;BME280;22678;52.052;4.242;2023-08-30T00:42:41;100809.28;;;17.37;66.62
36692;BME280;22678;52.052;4.242;2023-08-30T00:45:07;100811.13;;;17.34;66.64
36692;BME280;22678;52.052;4.242;2023-08-30T00:47:33;100804.88;;;17.36;66.83
36692;BME280;22678;52.052;4.242;2023-08-30T00:50:00;100784.00;;;17.25;66.84
36692;BME280;22678;52.052;4.242;2023-08-30T00:52:25;100802.31;;;17.32;67.02
36692;BME280;22678;52.052;4.242;2023-08-30T00:54:51;100791.00;;;17.27;67.17
36692;BME280;22678;52.052;4.242;2023-08-30T00:57:16;100776.22;;;17.20;67.19
36692;BME280;22678;52.052;4.242;2023-08-30T00:59:42;100784.88;;;17.25;67.50
36692;BME280;22678;52.052;4.242;2023-08-30T01:02:07;100771.81;;;17.19;67.65
36692;BME280;22678;52.052;4.242;2023-08-30T01:04:32;100792.72;;;17.28;67.80
36692;BME280;22678;52.052;4.242;2023-08-30T01:06:58;100776.34;;;17.17;67.97
36692;BME280;22678;52.052;4.242;2023-08-30T01:09:24;100776.22;;;17.20;67.98
36692;BME280;22678;52.052;4.242;2023-08-30T01:12:51;100780.44;;;17.26;68.33
36692;BME280;22678;52.052;4.242;2023-08-30T01:15:13;100769.88;;;17.24;68.43
36692;BME280;22678;52.052;4.242;2023-08-30T01:17:42;100776.03;;;17.25;68.24
36692;BME280;22678;52.052;4.242;2023-08-30T01:20:10;100752.66;;;17.11;68.54
36692;BME280;22678;52.052;4.242;2023-08-30T01:25:41;100774.25;;;17.25;68.84
36692;BME280;22678;52.052;4.242;2023-08-30T01:28:08;100758.41;;;17.22;68.88
36692;BME280;22678;52.052;4.242;2023-08-30T01:30:37;100748.13;;;17.13;69.09
36692;BME280;22678;52.052;4.242;2023-08-30T01:33:03;100742.81;;;17.13;69.36
36692;BME280;22678;52.052;4.242;2023-08-30T01:35:30;100742.81;;;17.13;69.48
36692;BME280;22678;52.052;4.242;2023-08-30T01:37:59;100761.91;;;17.24;69.68
36692;BME280;22678;52.052;4.242;2023-08-30T01:40:27;100745.34;;;17.16;69.69
36692;BME280;22678;52.052;4.242;2023-08-30T01:42:53;100753.97;;;17.23;69.79
36692;BME280;22678;52.052;4.242;2023-08-30T01:45:20;100746.88;;;17.23;69.77
36692;BME280;22678;52.052;4.242;2023-08-30T01:47:47;100741.72;;;17.19;69.86
36692;BME280;22678;52.052;4.242;2023-08-30T01:50:14;100747.78;;;17.22;69.94
36692;BME280;22678;52.052;4.242;2023-08-30T01:52:40;100746.13;;;17.20;70.25
36692;BME280;22678;52.052;4.242;2023-08-30T01:55:08;100744.31;;;17.20;70.26
36692;BME280;22678;52.052;4.242;2023-08-30T01:57:35;100739.25;;;17.14;70.13
36692;BME280;22678;52.052;4.242;2023-08-30T02:00:00;100738.34;;;17.13;70.37
36692;BME280;22678;52.052;4.242;2023-08-30T02:02:29;100739.25;;;17.14;70.34
36692;BME280;22678;52.052;4.242;2023-08-30T02:04:55;100749.09;;;17.10;70.05
36692;BME280;22678;52.052;4.242;2023-08-30T02:10:01;100743.06;;;17.07;70.53
36692;BME280;22678;52.052;4.242;2023-08-30T02:12:31;100736.34;;;16.96;70.71
36692;BME280;22678;52.052;4.242;2023-08-30T02:15:02;100740.75;;;16.97;70.59
36692;BME280;22678;52.052;4.242;2023-08-30T02:17:29;100728.66;;;16.89;70.58
36692;BME280;22678;52.052;4.242;2023-08-30T02:19:55;100697.47;;;16.69;70.98
36692;BME280;22678;52.052;4.242;2023-08-30T02:22:20;100731.44;;;16.84;70.99
36692;BME280;22678;52.052;4.242;2023-08-30T02:24:45;100702.13;;;16.62;71.06
36692;BME280;22678;52.052;4.242;2023-08-30T02:27:11;100698.50;;;16.64;71.01
36692;BME280;22678;52.052;4.242;2023-08-30T02:29:36;100716.13;;;16.67;71.21
36692;BME280;22678;52.052;4.242;2023-08-30T02:32:01;100719.50;;;16.71;71.17
36692;BME280;22678;52.052;4.242;2023-08-30T02:34:27;100697.75;;;16.61;71.18
36692;BME280;22678;52.052;4.242;2023-08-30T02:36:52;100700.56;;;16.56;71.25
36692;BME280;22678;52.052;4.242;2023-08-30T02:39:17;100705.66;;;16.62;71.27
36692;BME280;22678;52.052;4.242;2023-08-30T02:41:44;100674.44;;;16.44;71.52
36692;BME280;22678;52.052;4.242;2023-08-30T02:44:11;100697.88;;;16.58;71.60
36692;BME280;22678;52.052;4.242;2023-08-30T02:46:37;100670.94;;;16.43;71.64
36692;BME280;22678;52.052;4.242;2023-08-30T02:49:06;100683.03;;;16.52;71.68
36692;BME280;22678;52.052;4.242;2023-08-30T02:51:32;100680.38;;;16.52;71.78
36692;BME280;22678;52.052;4.242;2023-08-30T02:53:57;100645.59;;;16.35;71.51
36692;BME280;22678;52.052;4.242;2023-08-30T02:56:23;100626.63;;;16.20;71.58
36692;BME280;22678;52.052;4.242;2023-08-30T02:58:48;100652.78;;;16.31;71.67
36692;BME280;22678;52.052;4.242;2023-08-30T03:01:13;100640.91;;;16.16;71.60
36692;BME280;22678;52.052;4.242;2023-08-30T03:03:39;100665.97;;;16.33;71.62
36692;BME280;22678;52.052;4.242;2023-08-30T03:06:04;100665.13;;;16.32;71.68
36692;BME280;22678;52.052;4.242;2023-08-30T03:08:29;100650.63;;;16.17;71.82
36692;BME280;22678;52.052;4.242;2023-08-30T03:10:55;100579.44;;;15.78;71.74
36692;BME280;22678;52.052;4.242;2023-08-30T03:13:20;100641.94;;;16.12;72.11
36692;BME280;22678;52.052;4.242;2023-08-30T03:15:45;100641.28;;;16.05;72.40
36692;BME280;22678;52.052;4.242;2023-08-30T03:18:11;100663.88;;;16.17;72.25
36692;BME280;22678;52.052;4.242;2023-08-30T03:20:36;100666.66;;;16.14;72.24
36692;BME280;22678;52.052;4.242;2023-08-30T03:23:01;100630.28;;;15.91;72.50
36692;BME280;22678;52.052;4.242;2023-08-30T03:25:30;100658.06;;;16.06;72.37
36692;BME280;22678;52.052;4.242;2023-08-30T03:27:55;100640.63;;;15.99;72.49
36692;BME280;22678;52.052;4.242;2023-08-30T03:30:20;100625.81;;;15.93;72.56
36692;BME280;22678;52.052;4.242;2023-08-30T03:32:46;100635.38;;;15.97;72.56
36692;BME280;22678;52.052;4.242;2023-08-30T03:35:11;100625.03;;;15.89;72.68
36692;BME280;22678;52.052;4.242;2023-08-30T03:37:37;100625.09;;;15.88;72.87
36692;BME280;22678;52.052;4.242;2023-08-30T03:40:02;100634.78;;;15.89;73.09
36692;BME280;22678;52.052;4.242;2023-08-30T03:42:29;100644.31;;;15.94;73.39
36692;BME280;22678;52.052;4.242;2023-08-30T03:44:55;100563.56;;;15.50;73.03
36692;BME280;22678;52.052;4.242;2023-08-30T03:47:20;100639.09;;;15.91;73.35
36692;BME280;22678;52.052;4.242;2023-08-30T03:49:45;100631.13;;;15.91;73.37
36692;BME280;22678;52.052;4.242;2023-08-30T03:52:10;100611.13;;;15.83;73.38
36692;BME280;22678;52.052;4.242;2023-08-30T03:54:36;100624.13;;;15.90;73.51
36692;BME280;22678;52.052;4.242;2023-08-30T03:57:01;100605.78;;;15.84;73.65
36692;BME280;22678;52.052;4.242;2023-08-30T03:59:28;100618.00;;;15.88;73.45
36692;BME280;22678;52.052;4.242;2023-08-30T04:01:53;100591.16;;;15.71;73.60
36692;BME280;22678;52.052;4.242;2023-08-30T04:04:19;100581.69;;;15.64;73.87
36692;BME280;22678;52.052;4.242;2023-08-30T04:06:44;100595.44;;;15.75;74.06
36692;BME280;22678;52.052;4.242;2023-08-30T04:09:09;100595.53;;;15.72;73.78
36692;BME280;22678;52.052;4.242;2023-08-30T04:11:35;100590.44;;;15.66;74.16
36692;BME280;22678;52.052;4.242;2023-08-30T04:14:00;100590.44;;;15.66;74.27
36692;BME280;22678;52.052;4.242;2023-08-30T04:16:26;100566.91;;;15.56;74.27
36692;BME280;22678;52.052;4.242;2023-08-30T04:18:51;100574.75;;;15.59;74.10
36692;BME280;22678;52.052;4.242;2023-08-30T04:21:16;100591.97;;;15.73;74.40
36692;BME280;22678;52.052;4.242;2023-08-30T04:23:42;100597.31;;;15.71;74.62
36692;BME280;22678;52.052;4.242;2023-08-30T04:26:07;100595.59;;;15.70;74.65
36692;BME280;22678;52.052;4.242;2023-08-30T04:28:32;100588.59;;;15.68;74.72
36692;BME280;22678;52.052;4.242;2023-08-30T04:30:58;100563.31;;;15.57;74.58
36692;BME280;22678;52.052;4.242;2023-08-30T04:33:24;100587.69;;;15.69;74.67
36692;BME280;22678;52.052;4.242;2023-08-30T04:35:53;100590.38;;;15.67;74.91
36692;BME280;22678;52.052;4.242;2023-08-30T04:38:19;100577.13;;;15.67;74.98
36692;BME280;22678;52.052;4.242;2023-08-30T04:40:45;100556.50;;;15.50;75.14
36692;BME280;22678;52.052;4.242;2023-08-30T04:43:11;100569.34;;;15.63;75.43
36692;BME280;22678;52.052;4.242;2023-08-30T04:45:36;100564.34;;;15.53;75.42
36692;BME280;22678;52.052;4.242;2023-08-30T04:48:02;100592.25;;;15.65;75.62
36692;BME280;22678;52.052;4.242;2023-08-30T04:50:27;100574.97;;;15.53;75.69
36692;BME280;22678;52.052;4.242;2023-08-30T04:52:52;100574.97;;;15.53;76.05
36692;BME280;22678;52.052;4.242;2023-08-30T04:55:18;100588.09;;;15.56;76.25
36692;BME280;22678;52.052;4.242;2023-08-30T04:57:43;100599.41;;;15.62;76.50
36692;BME280;22678;52.052;4.242;2023-08-30T05:00:13;100597.72;;;15.59;77.00
36692;BME280;22678;52.052;4.242;2023-08-30T05:02:38;100566.59;;;15.39;77.19
36692;BME280;22678;52.052;4.242;2023-08-30T05:05:04;100588.22;;;15.53;77.57
36692;BME280;22678;52.052;4.242;2023-08-30T05:07:30;100581.38;;;15.46;77.88
36692;BME280;22678;52.052;4.242;2023-08-30T05:09:55;100579.53;;;15.48;78.21
36692;BME280;22678;52.052;4.242;2023-08-30T05:12:20;100586.56;;;15.49;78.68
36692;BME280;22678;52.052;4.242;2023-08-30T05:14:46;100565.69;;;15.40;78.90
36692;BME280;22678;52.052;4.242;2023-08-30T05:17:11;100544.22;;;15.21;79.50
36692;BME280;22678;52.052;4.242;2023-08-30T05:19:36;100553.88;;;15.22;79.63
36692;BME280;22678;52.052;4.242;2023-08-30T05:22:02;100567.84;;;15.27;80.26
36692;BME280;22678;52.052;4.242;2023-08-30T05:24:27;100572.31;;;15.25;80.62
36692;BME280;22678;52.052;4.242;2023-08-30T05:26:53;100543.78;;;15.06;81.14
36692;BME280;22678;52.052;4.242;2023-08-30T05:29:19;100569.81;;;15.20;81.84
36692;BME280;22678;52.052;4.242;2023-08-30T05:31:45;100542.00;;;15.07;81.94
36692;BME280;22678;52.052;4.242;2023-08-30T05:34:11;100544.50;;;15.12;82.04
36692;BME280;22678;52.052;4.242;2023-08-30T05:36:36;100530.69;;;15.02;82.63
36692;BME280;22678;52.052;4.242;2023-08-30T05:39:02;100558.63;;;15.12;82.84
36692;BME280;22678;52.052;4.242;2023-08-30T05:41:28;100558.63;;;15.12;83.18
36692;BME280;22678;52.052;4.242;2023-08-30T05:43:54;100528.19;;;14.97;82.98
36692;BME280;22678;52.052;4.242;2023-08-30T05:46:20;100523.91;;;14.93;83.56
36692;BME280;22678;52.052;4.242;2023-08-30T05:48:45;100519.50;;;14.92;84.18
36692;BME280;22678;52.052;4.242;2023-08-30T05:51:11;100528.19;;;14.97;84.53
36692;BME280;22678;52.052;4.242;2023-08-30T05:53:36;100534.53;;;14.92;85.15
36692;BME280;22678;52.052;4.242;2023-08-30T05:56:02;100545.03;;;14.95;85.29
36692;BME280;22678;52.052;4.242;2023-08-30T05:58:28;100537.09;;;14.95;85.62
36692;BME280;22678;52.052;4.242;2023-08-30T06:00:53;100515.28;;;14.86;85.77
36692;BME280;22678;52.052;4.242;2023-08-30T06:03:18;100526.50;;;14.95;86.19
36692;BME280;22678;52.052;4.242;2023-08-30T06:05:44;100514.38;;;14.87;86.46
36692;BME280;22678;52.052;4.242;2023-08-30T06:08:09;100497.84;;;14.79;86.73
36692;BME280;22678;52.052;4.242;2023-08-30T06:10:37;100500.41;;;14.82;87.17
36692;BME280;22678;52.052;4.242;2023-08-30T06:13:04;100504.69;;;14.86;87.52
36692;BME280;22678;52.052;4.242;2023-08-30T06:15:29;100510.88;;;14.87;87.63
36692;BME280;22678;52.052;4.242;2023-08-30T06:17:54;100476.97;;;14.70;87.66
36692;BME280;22678;52.052;4.242;2023-08-30T06:20:20;100486.66;;;14.71;88.00
36692;BME280;22678;52.052;4.242;2023-08-30T06:22:46;100517.00;;;14.87;88.38
36692;BME280;22678;52.052;4.242;2023-08-30T06:25:11;100509.03;;;14.89;88.72
36692;BME280;22678;52.052;4.242;2023-08-30T06:27:42;100509.69;;;14.96;88.61
36692;BME280;22678;52.052;4.242;2023-08-30T06:30:09;100497.59;;;14.88;88.83
36692;BME280;22678;52.052;4.242;2023-08-30T06:32:35;100502.78;;;14.92;89.03
36692;BME280;22678;52.052;4.242;2023-08-30T06:35:00;100488.91;;;14.83;89.30
36692;BME280;22678;52.052;4.242;2023-08-30T06:37:26;100492.28;;;14.88;89.54
36692;BME280;22678;52.052;4.242;2023-08-30T06:39:51;100455.91;;;14.67;89.61
36692;BME280;22678;52.052;4.242;2023-08-30T06:42:16;100493.78;;;14.96;90.08
36692;BME280;22678;52.052;4.242;2023-08-30T06:44:42;100482.41;;;14.94;90.13
36692;BME280;22678;52.052;4.242;2023-08-30T06:47:07;100479.84;;;14.91;90.67
36692;BME280;22678;52.052;4.242;2023-08-30T06:49:33;100481.50;;;14.95;90.75
36692;BME280;22678;52.052;4.242;2023-08-30T06:51:59;100494.53;;;15.01;90.88
36692;BME280;22678;52.052;4.242;2023-08-30T06:54:28;100481.50;;;14.95;91.15
36692;BME280;22678;52.052;4.242;2023-08-30T06:57:01;100499.66;;;15.05;91.07
36692;BME280;22678;52.052;4.242;2023-08-30T06:59:27;100471.72;;;14.97;91.34
36692;BME280;22678;52.052;4.242;2023-08-30T07:01:53;100489.94;;;15.06;91.67
36692;BME280;22678;52.052;4.242;2023-08-30T07:04:19;100429.13;;;14.76;91.73
36692;BME280;22678;52.052;4.242;2023-08-30T07:06:44;100461.06;;;14.98;91.81
36692;BME280;22678;52.052;4.242;2023-08-30T07:09:10;100469.91;;;14.99;92.01
36692;BME280;22678;52.052;4.242;2023-08-30T07:11:37;100455.91;;;14.94;92.39
36692;BME280;22678;52.052;4.242;2023-08-30T07:14:03;100455.88;;;14.95;92.55
36692;BME280;22678;52.052;4.242;2023-08-30T07:16:30;100458.25;;;15.03;92.87
36692;BME280;22678;52.052;4.242;2023-08-30T07:18:57;100474.81;;;15.10;92.91
36692;BME280;22678;52.052;4.242;2023-08-30T07:21:22;100464.50;;;15.02;93.10
36692;BME280;22678;52.052;4.242;2023-08-30T07:23:48;100442.69;;;14.94;93.08
36692;BME280;22678;52.052;4.242;2023-08-30T07:26:13;100457.03;;;15.13;93.25
36692;BME280;22678;52.052;4.242;2023-08-30T07:28:39;100422.34;;;14.94;93.52
36692;BME280;22678;52.052;4.242;2023-08-30T07:31:05;100465.66;;;15.20;93.50
36692;BME280;22678;52.052;4.242;2023-08-30T07:33:30;100428.34;;;15.01;93.56
36692;BME280;22678;52.052;4.242;2023-08-30T07:35:56;100438.81;;;15.04;93.55
36692;BME280;22678;52.052;4.242;2023-08-30T07:38:21;100462.22;;;15.16;94.03
36692;BME280;22678;52.052;4.242;2023-08-30T07:40:47;100461.22;;;15.20;94.19
36692;BME280;22678;52.052;4.242;2023-08-30T07:43:12;100465.66;;;15.20;94.51
36692;BME280;22678;52.052;4.242;2023-08-30T07:45:37;100454.28;;;15.16;94.65
36692;BME280;22678;52.052;4.242;2023-08-30T07:48:03;100477.56;;;15.33;94.66
36692;BME280;22678;52.052;4.242;2023-08-30T07:50:28;100459.50;;;15.19;95.16
36692;BME280;22678;52.052;4.242;2023-08-30T07:52:54;100488.97;;;15.35;94.99
36692;BME280;22678;52.052;4.242;2023-08-30T07:55:19;100486.28;;;15.37;95.17
36692;BME280;22678;52.052;4.242;2023-08-30T07:57:45;100481.81;;;15.39;95.23
36692;BME280;22678;52.052;4.242;2023-08-30T08:00:11;100485.25;;;15.41;95.43
36692;BME280;22678;52.052;4.242;2023-08-30T08:02:37;100460.00;;;15.31;95.68
36692;BME280;22678;52.052;4.242;2023-08-30T08:05:02;100483.13;;;15.52;95.68
36692;BME280;22678;52.052;4.242;2023-08-30T08:07:27;100479.44;;;15.56;95.94
36692;BME280;22678;52.052;4.242;2023-08-30T08:09:53;100468.63;;;15.63;96.04
36692;BME280;22678;52.052;4.242;2023-08-30T08:12:19;100477.78;;;15.79;96.19
36692;BME280;22678;52.052;4.242;2023-08-30T08:14:44;100446.34;;;15.68;96.33
36692;BME280;22678;52.052;4.242;2023-08-30T08:17:10;100481.50;;;15.99;96.77
36692;BME280;22678;52.052;4.242;2023-08-30T08:19:35;100488.69;;;16.20;96.61
36692;BME280;22678;52.052;4.242;2023-08-30T08:22:04;100478.84;;;16.22;96.24
36692;BME280;22678;52.052;4.242;2023-08-30T08:24:30;100493.47;;;16.34;96.00
36692;BME280;22678;52.052;4.242;2023-08-30T08:26:55;100483.59;;;16.38;95.95
36692;BME280;22678;52.052;4.242;2023-08-30T08:29:20;100464.28;;;16.34;96.08
36692;BME280;22678;52.052;4.242;2023-08-30T08:31:46;100473.88;;;16.60;96.17
36692;BME280;22678;52.052;4.242;2023-08-30T08:34:12;100493.31;;;17.07;95.61
36692;BME280;22678;52.052;4.242;2023-08-30T08:36:39;100493.66;;;17.42;94.74
36692;BME280;22678;52.052;4.242;2023-08-30T08:39:05;100475.44;;;17.53;93.33
36692;BME280;22678;52.052;4.242;2023-08-30T08:41:39;100501.66;;;17.62;92.33
36692;BME280;22678;52.052;4.242;2023-08-30T08:44:05;100493.53;;;17.45;91.71
36692;BME280;22678;52.052;4.242;2023-08-30T08:46:32;100504.28;;;17.42;90.99
36692;BME280;22678;52.052;4.242;2023-08-30T08:48:58;100491.38;;;17.32;90.50
36692;BME280;22678;52.052;4.242;2023-08-30T08:51:26;100491.94;;;17.41;90.69
36692;BME280;22678;52.052;4.242;2023-08-30T08:53:52;100511.59;;;17.78;90.31
36692;BME280;22678;52.052;4.242;2023-08-30T08:56:21;100502.78;;;17.98;89.50
36692;BME280;22678;52.052;4.242;2023-08-30T08:58:46;100502.84;;;18.17;88.02
36692;BME280;22678;52.052;4.242;2023-08-30T09:01:12;100511.59;;;18.19;86.82
36692;BME280;22678;52.052;4.242;2023-08-30T09:03:38;100502.22;;;18.10;86.11
36692;BME280;22678;52.052;4.242;2023-08-30T09:06:04;100495.78;;;18.16;85.88
36692;BME280;22678;52.052;4.242;2023-08-30T09:08:29;100509.03;;;18.36;84.34
36692;BME280;22678;52.052;4.242;2023-08-30T09:10:55;100522.44;;;18.54;83.85
36692;BME280;22678;52.052;4.242;2023-08-30T09:13:20;100521.56;;;18.53;83.00
36692;BME280;22678;52.052;4.242;2023-08-30T09:15:47;100514.81;;;18.46;82.28
36692;BME280;22678;52.052;4.242;2023-08-30T09:18:17;100518.63;;;18.41;81.46
36692;BME280;22678;52.052;4.242;2023-08-30T09:20:43;100522.59;;;18.51;81.30
36692;BME280;22678;52.052;4.242;2023-08-30T09:23:19;100533.78;;;18.77;80.48
36692;BME280;22678;52.052;4.242;2023-08-30T09:25:45;100536.97;;;18.85;79.69
36692;BME280;22678;52.052;4.242;2023-08-30T09:28:11;100517.09;;;18.54;78.86
36692;BME280;22678;52.052;4.242;2023-08-30T09:30:36;100544.59;;;18.54;78.26
36692;BME280;22678;52.052;4.242;2023-08-30T09:33:02;100546.88;;;18.43;77.87
36692;BME280;22678;52.052;4.242;2023-08-30T09:35:28;100550.72;;;18.37;78.24
36692;BME280;22678;52.052;4.242;2023-08-30T09:37:54;100552.69;;;18.32;77.76
36692;BME280;22678;52.052;4.242;2023-08-30T09:40:19;100543.53;;;18.19;77.54
36692;BME280;22678;52.052;4.242;2023-08-30T09:42:45;100545.59;;;18.12;77.47
36692;BME280;22678;52.052;4.242;2023-08-30T09:45:19;100549.66;;;18.00;76.94
36692;BME280;22678;52.052;4.242;2023-08-30T09:47:48;100535.94;;;17.89;76.75
36692;BME280;22678;52.052;4.242;2023-08-30T09:50:17;100537.31;;;17.99;76.63
36692;BME280;22678;52.052;4.242;2023-08-30T09:52:43;100541.28;;;18.10;76.17
36692;BME280;22678;52.052;4.242;2023-08-30T09:55:09;100491.94;;;17.82;75.11
36692;BME280;22678;52.052;4.242;2023-08-30T09:57:35;100541.94;;;18.15;74.21
36692;BME280;22678;52.052;4.242;2023-08-30T10:00:01;100555.91;;;18.20;73.88
36692;BME280;22678;52.052;4.242;2023-08-30T10:02:29;100530.25;;;17.98;73.19
36692;BME280;22678;52.052;4.242;2023-08-30T10:04:56;100552.84;;;18.09;73.37
36692;BME280;22678;52.052;4.242;2023-08-30T10:07:23;100550.47;;;18.23;72.66
36692;BME280;22678;52.052;4.242;2023-08-30T10:09:50;100565.03;;;18.54;72.35
36692;BME280;22678;52.052;4.242;2023-08-30T10:12:20;100537.13;;;18.63;71.71
36692;BME280;22678;52.052;4.242;2023-08-30T10:14:46;100556.25;;;18.71;71.16
36692;BME280;22678;52.052;4.242;2023-08-30T10:17:12;100555.69;;;18.64;70.49
36692;BME280;22678;52.052;4.242;2023-08-30T10:19:39;100536.97;;;18.47;70.20
36692;BME280;22678;52.052;4.242;2023-08-30T10:22:06;100561.41;;;18.55;69.83
36692;BME280;22678;52.052;4.242;2023-08-30T10:25:01;100567.78;;;18.71;68.77
36692;BME280;22678;52.052;4.242;2023-08-30T10:27:30;100549.63;;;18.61;68.01
36692;BME280;22678;52.052;4.242;2023-08-30T10:29:57;100563.59;;;18.66;67.97
36692;BME280;22678;52.052;4.242;2023-08-30T10:32:24;100564.47;;;18.66;67.93
36692;BME280;22678;52.052;4.242;2023-08-30T10:34:51;100563.06;;;18.97;68.04
36692;BME280;22678;52.052;4.242;2023-08-30T10:37:22;100571.25;;;19.12;66.92
36692;BME280;22678;52.052;4.242;2023-08-30T10:39:48;100576.13;;;19.21;66.11
36692;BME280;22678;52.052;4.242;2023-08-30T10:42:16;100538.56;;;19.08;65.89
36692;BME280;22678;52.052;4.242;2023-08-30T10:44:59;100565.91;;;19.31;66.28
36692;BME280;22678;52.052;4.242;2023-08-30T10:47:27;100546.25;;;19.14;66.44
36692;BME280;22678;52.052;4.242;2023-08-30T10:49:57;100577.19;;;19.36;66.58
36692;BME280;22678;52.052;4.242;2023-08-30T10:52:23;100585.53;;;19.47;65.97
36692;BME280;22678;52.052;4.242;2023-08-30T10:54:50;100586.25;;;19.68;65.18
36692;BME280;22678;52.052;4.242;2023-08-30T10:57:20;100591.47;;;19.89;64.32
36692;BME280;22678;52.052;4.242;2023-08-30T11:02:37;100589.66;;;20.24;62.81
36692;BME280;22678;52.052;4.242;2023-08-30T11:05:05;100590.91;;;20.35;62.73
36692;BME280;22678;52.052;4.242;2023-08-30T11:07:31;100573.28;;;20.48;62.49
36692;BME280;22678;52.052;4.242;2023-08-30T11:09:57;100591.56;;;20.89;61.67
36692;BME280;22678;52.052;4.242;2023-08-30T11:12:23;100572.56;;;20.94;61.25
36692;BME280;22678;52.052;4.242;2023-08-30T11:14:49;100601.56;;;21.17;59.62
36692;BME280;22678;52.052;4.242;2023-08-30T11:17:18;100598.97;;;21.16;59.73
36692;BME280;22678;52.052;4.242;2023-08-30T11:19:44;100605.44;;;21.28;59.59
36692;BME280;22678;52.052;4.242;2023-08-30T11:22:10;100602.59;;;21.15;59.25
36692;BME280;22678;52.052;4.242;2023-08-30T11:24:35;100608.09;;;20.96;58.73
36692;BME280;22678;52.052;4.242;2023-08-30T11:27:01;100587.47;;;20.66;58.99
36692;BME280;22678;52.052;4.242;2023-08-30T11:29:27;100597.31;;;20.64;58.75
36692;BME280;22678;52.052;4.242;2023-08-30T11:31:52;100593.88;;;20.62;59.10
36692;BME280;22678;52.052;4.242;2023-08-30T11:34:21;100604.91;;;20.56;58.03
36692;BME280;22678;52.052;4.242;2023-08-30T11:36:48;100609.34;;;20.39;58.42
36692;BME280;22678;52.052;4.242;2023-08-30T11:39:15;100607.38;;;20.25;59.41
36692;BME280;22678;52.052;4.242;2023-08-30T11:41:41;100597.13;;;20.00;60.14
36692;BME280;22678;52.052;4.242;2023-08-30T11:44:07;100589.13;;;19.83;60.62
36692;BME280;22678;52.052;4.242;2023-08-30T11:46:33;100581.88;;;19.67;61.33
36692;BME280;22678;52.052;4.242;2023-08-30T11:48:58;100612.78;;;19.71;61.47
36692;BME280;22678;52.052;4.242;2023-08-30T11:51:24;100612.47;;;19.60;61.81
36692;BME280;22678;52.052;4.242;2023-08-30T11:53:50;100603.19;;;19.50;62.19
36692;BME280;22678;52.052;4.242;2023-08-30T11:56:15;100613.38;;;19.59;61.78
36692;BME280;22678;52.052;4.242;2023-08-30T11:58:42;100600.53;;;19.50;61.98
36692;BME280;22678;52.052;4.242;2023-08-30T12:01:08;100583.88;;;19.44;61.83
36692;BME280;22678;52.052;4.242;2023-08-30T12:03:34;100589.94;;;19.48;61.54
36692;BME280;22678;52.052;4.242;2023-08-30T12:05:59;100612.78;;;19.71;61.19
36692;BME280;22678;52.052;4.242;2023-08-30T12:08:30;100620.34;;;19.81;59.74
36692;BME280;22678;52.052;4.242;2023-08-30T12:10:57;100602.81;;;19.75;59.49
36692;BME280;22678;52.052;4.242;2023-08-30T12:13:26;100629.63;;;19.91;59.27
36692;BME280;22678;52.052;4.242;2023-08-30T12:15:52;100618.94;;;19.91;59.63
36692;BME280;22678;52.052;4.242;2023-08-30T12:18:26;100642.66;;;20.15;60.17
36692;BME280;22678;52.052;4.242;2023-08-30T12:20:58;100622.94;;;20.35;60.36
36692;BME280;22678;52.052;4.242;2023-08-30T12:23:24;100609.00;;;20.45;59.34
36692;BME280;22678;52.052;4.242;2023-08-30T12:26:01;100635.97;;;20.74;56.94
36692;BME280;22678;52.052;4.242;2023-08-30T12:28:27;100638.09;;;20.85;56.80
36692;BME280;22678;52.052;4.242;2023-08-30T12:30:53;100619.81;;;20.77;56.97
36692;BME280;22678;52.052;4.242;2023-08-30T12:33:19;100622.91;;;20.86;57.37
36692;BME280;22678;52.052;4.242;2023-08-30T12:35:44;100637.78;;;21.07;58.36
36692;BME280;22678;52.052;4.242;2023-08-30T12:38:10;100646.22;;;21.15;58.83
36692;BME280;22678;52.052;4.242;2023-08-30T12:40:37;100626.47;;;21.02;59.93
36692;BME280;22678;52.052;4.242;2023-08-30T12:43:03;100643.97;;;21.08;60.05
36692;BME280;22678;52.052;4.242;2023-08-30T12:45:29;100614.22;;;20.82;59.60
36692;BME280;22678;52.052;4.242;2023-08-30T12:47:54;100642.41;;;20.88;59.77
36692;BME280;22678;52.052;4.242;2023-08-30T12:50:21;100646.97;;;20.86;59.63
36692;BME280;22678;52.052;4.242;2023-08-30T12:52:47;100565.97;;;20.34;58.89
36692;BME280;22678;52.052;4.242;2023-08-30T12:55:13;100630.97;;;20.68;59.52